Time;durP1;ratioP1;P1;durP2;ratioP2;P2;SDS_P1;SDS_P2;PMS_P1;PMS_P2;Temp;Humidity;BMP_temperature;BMP_pressure;BME280_temperature;BME280_humidity;BME280_pressure;Samples;Min_cycle;Max_cycle;Signal;HPM_P1;HPM_P2
2023/07/01 00:01:24;;;;;;;;;10.00;10.00;;;;;25.84;96.92;98042.38;6064597;28;97224;-61
2023/07/01 00:04:28;;;;;;;;;11.00;9.00;;;;;25.76;98.17;98048.78;6066322;28;96306;-61
2023/07/01 00:07:33;;;;;;;;;10.00;10.00;;;;;25.79;97.76;98052.84;6065687;28;98205;-61
2023/07/01 00:10:37;;;;;;;;;10.00;9.75;;;;;25.74;99.27;98051.09;6066385;28;96860;-61
2023/07/01 00:13:40;;;;;;;;;9.00;9.00;;;;;25.63;99.57;98049.91;6065514;28;96476;-61
2023/07/01 00:16:43;;;;;;;;;9.60;9.00;;;;;25.59;99.83;98045.41;6066426;28;97055;-61
2023/07/01 00:19:47;;;;;;;;;8.40;8.40;;;;;25.46;100.00;98052.81;6065149;28;96467;-61
2023/07/01 00:22:52;;;;;;;;;10.20;10.20;;;;;25.38;100.00;98042.66;6047629;28;98826;-61
2023/07/01 00:25:55;;;;;;;;;11.60;10.60;;;;;25.27;100.00;98031.22;6063465;28;96691;-61
2023/07/01 00:28:59;;;;;;;;;11.00;11.00;;;;;25.26;100.00;98037.09;6063759;28;97597;-61
2023/07/01 00:32:02;;;;;;;;;11.25;10.50;;;;;25.26;100.00;98039.84;6048889;28;97690;-61
2023/07/01 00:35:06;;;;;;;;;8.20;8.20;;;;;25.25;100.00;98032.72;6065782;28;96468;-61
2023/07/01 00:38:11;;;;;;;;;14.00;13.00;;;;;25.24;100.00;98039.38;6062641;28;96819;-61
2023/07/01 00:41:17;;;;;;;;;10.20;10.20;;;;;25.22;100.00;98023.16;6041633;28;96474;-61
2023/07/01 00:44:21;;;;;;;;;12.40;12.40;;;;;25.21;100.00;98027.06;6024718;28;96996;-61
2023/07/01 00:47:24;;;;;;;;;10.00;10.00;;;;;25.22;100.00;98036.94;6047720;28;96354;-60
2023/07/01 00:50:28;;;;;;;;;9.60;9.60;;;;;25.19;100.00;98032.13;6023346;28;96863;-61
2023/07/01 00:53:32;;;;;;;;;9.00;8.20;;;;;25.18;100.00;98030.50;6041976;28;96928;-61
2023/07/01 00:56:36;;;;;;;;;8.50;8.25;;;;;25.18;100.00;98029.69;6040566;28;96604;-61
2023/07/01 00:59:40;;;;;;;;;9.00;9.00;;;;;25.14;100.00;98028.75;6042132;28;96643;-61
2023/07/01 01:02:51;;;;;;;;;9.50;9.50;;;;;25.05;100.00;98008.72;6041098;28;96545;-61
2023/07/01 01:06:02;;;;;;;;;9.00;8.00;;;;;25.07;100.00;98020.22;6054072;28;96368;-61
2023/07/01 01:09:15;;;;;;;;;11.60;11.60;;;;;24.99;100.00;98013.63;6021455;28;97918;-61
2023/07/01 01:12:22;;;;;;;;;9.00;8.40;;;;;25.00;100.00;98005.03;6056947;28;96611;-61
2023/07/01 01:15:27;;;;;;;;;9.00;9.00;;;;;24.97;100.00;98005.69;6033104;28;96742;-61
2023/07/01 01:18:33;;;;;;;;;10.00;10.00;;;;;24.93;100.00;98007.50;6046735;28;96594;-61
2023/07/01 01:21:38;;;;;;;;;11.00;10.00;;;;;24.89;100.00;98003.81;6033682;28;96609;-61
2023/07/01 01:24:47;;;;;;;;;10.00;10.00;;;;;24.82;100.00;97997.19;6045535;28;96720;-61
2023/07/01 01:27:52;;;;;;;;;10.50;10.00;;;;;24.82;100.00;97983.41;6052751;28;96420;-61
2023/07/01 01:30:56;;;;;;;;;11.00;11.00;;;;;24.81;100.00;97984.56;6038582;28;96408;-61
2023/07/01 01:33:59;;;;;;;;;10.00;10.00;;;;;24.81;100.00;97979.03;6043774;28;96352;-61
2023/07/01 01:37:07;;;;;;;;;12.60;12.00;;;;;24.79;100.00;97978.56;6044430;28;96397;-61
2023/07/01 01:40:18;;;;;;;;;10.80;10.00;;;;;24.77;100.00;97978.91;6027544;28;96731;-61
2023/07/01 01:43:28;;;;;;;;;9.75;9.00;;;;;24.72;100.00;97970.84;6044556;28;96357;-61
2023/07/01 01:46:35;;;;;;;;;11.00;10.67;;;;;24.70;100.00;97978.63;6045819;28;96603;-61
2023/07/01 01:49:42;;;;;;;;;12.00;11.00;;;;;24.68;100.00;97975.38;6019595;28;96766;-61
2023/07/01 01:52:50;;;;;;;;;10.00;9.20;;;;;24.65;100.00;97981.59;6041287;28;97104;-61
2023/07/01 01:55:54;;;;;;;;;11.00;11.00;;;;;24.60;100.00;97973.50;6040331;28;96725;-61
2023/07/01 01:59:00;;;;;;;;;14.00;12.00;;;;;24.60;100.00;97979.03;6049002;28;97535;-61
2023/07/01 02:02:04;;;;;;;;;10.00;9.00;;;;;24.59;100.00;97969.13;6043471;28;96524;-61
2023/07/01 02:05:08;;;;;;;;;9.20;9.20;;;;;24.56;100.00;97978.09;6045220;28;97082;-61
2023/07/01 02:08:13;;;;;;;;;7.00;7.00;;;;;24.53;100.00;97974.03;6033526;28;97411;-61
2023/07/01 02:11:17;;;;;;;;;12.00;12.00;;;;;24.48;100.00;97973.44;6043781;28;96795;-61
2023/07/01 02:14:22;;;;;;;;;13.00;13.00;;;;;24.46;100.00;97973.78;6041102;28;96947;-61
2023/07/01 02:17:25;;;;;;;;;12.60;12.60;;;;;24.40;100.00;97980.63;6028130;28;96421;-61
2023/07/01 02:20:29;;;;;;;;;12.00;12.00;;;;;24.41;100.00;97987.75;6043898;28;98138;-61
2023/07/01 02:23:32;;;;;;;;;13.00;12.00;;;;;24.43;100.00;97984.66;6039491;28;97039;-61
2023/07/01 02:26:35;;;;;;;;;12.20;11.40;;;;;24.41;100.00;97982.25;6042063;28;97239;-61
2023/07/01 02:29:41;;;;;;;;;13.00;13.00;;;;;24.39;100.00;97976.25;6043063;28;96316;-61
2023/07/01 02:32:44;;;;;;;;;11.20;11.20;;;;;24.34;100.00;97984.69;6042912;28;97915;-61
2023/07/01 02:35:47;;;;;;;;;14.00;13.00;;;;;24.32;100.00;97977.91;6012120;28;96743;-61
2023/07/01 02:38:51;;;;;;;;;12.00;11.60;;;;;24.31;100.00;97990.06;6044776;28;96720;-61
2023/07/01 02:41:54;;;;;;;;;11.50;11.50;;;;;24.33;100.00;97985.06;6045040;28;96645;-61
2023/07/01 02:44:59;;;;;;;;;14.00;13.40;;;;;24.31;100.00;97974.34;6027202;28;98506;-61
2023/07/01 02:48:03;;;;;;;;;13.00;13.00;;;;;24.32;100.00;97978.72;6043567;28;96928;-61
2023/07/01 02:51:08;;;;;;;;;15.20;13.20;;;;;24.29;100.00;97978.59;6045172;28;97027;-61
2023/07/01 02:54:11;;;;;;;;;13.00;13.00;;;;;24.29;100.00;97978.59;6011236;28;98478;-61
2023/07/01 02:57:15;;;;;;;;;14.00;13.00;;;;;24.29;100.00;97968.34;6026303;28;97979;-61
2023/07/01 03:00:21;;;;;;;;;13.00;12.40;;;;;24.30;100.00;97977.44;6044118;28;96745;-61
2023/07/01 03:03:25;;;;;;;;;14.60;14.60;;;;;24.28;100.00;97964.03;6044015;28;96929;-61
2023/07/01 03:06:28;;;;;;;;;11.80;11.80;;;;;24.29;100.00;97962.84;6042558;28;96288;-61
2023/07/01 03:09:31;;;;;;;;;14.50;13.50;;;;;24.26;100.00;97955.25;6028246;28;96600;-61
2023/07/01 03:12:35;;;;;;;;;13.40;12.40;;;;;24.24;100.00;97965.78;6044192;28;96908;-61
2023/07/01 03:15:40;;;;;;;;;13.00;13.00;;;;;24.21;100.00;97960.16;6044560;28;96518;-61
2023/07/01 03:18:44;;;;;;;;;14.00;13.00;;;;;24.15;100.00;97965.81;6042283;28;96822;-61
2023/07/01 03:21:47;;;;;;;;;13.00;12.00;;;;;24.13;100.00;97965.38;6027021;28;96684;-61
2023/07/01 03:24:50;;;;;;;;;14.00;13.20;;;;;24.08;100.00;97971.06;6041311;28;96919;-61
2023/07/01 03:27:54;;;;;;;;;12.25;12.25;;;;;24.05;100.00;97979.97;6043882;28;96511;-61
2023/07/01 03:30:59;;;;;;;;;16.00;15.50;;;;;24.02;100.00;97986.16;6041962;28;96382;-60
2023/07/01 03:34:03;;;;;;;;;13.00;12.40;;;;;23.97;100.00;97986.31;6043868;28;96524;-61
2023/07/01 03:37:07;;;;;;;;;12.40;12.40;;;;;23.94;100.00;98002.72;6044014;28;97241;-61
2023/07/01 03:40:11;;;;;;;;;12.50;12.50;;;;;23.84;100.00;97992.88;6044001;28;96475;-61
2023/07/01 03:43:14;;;;;;;;;13.25;13.00;;;;;23.92;100.00;98000.28;6044276;28;96456;-61
2023/07/01 03:46:19;;;;;;;;;15.80;14.80;;;;;23.91;100.00;97984.91;6043892;28;96327;-61
2023/07/01 03:49:23;;;;;;;;;13.40;13.40;;;;;23.90;100.00;97977.75;6042341;28;97073;-61
2023/07/01 03:52:26;;;;;;;;;14.25;14.25;;;;;23.87;100.00;97974.88;6043808;28;96716;-61
2023/07/01 03:55:30;;;;;;;;;14.00;13.40;;;;;23.86;100.00;97982.31;6043271;28;96901;-61
2023/07/01 03:58:33;;;;;;;;;11.60;11.40;;;;;23.85;100.00;97986.19;6043448;28;97621;-61
2023/07/01 04:01:39;;;;;;;;;12.40;12.00;;;;;23.86;100.00;97981.50;6043674;28;96420;-61
2023/07/01 04:04:43;;;;;;;;;13.00;12.00;;;;;23.81;100.00;97978.94;6041191;28;98630;-61
2023/07/01 04:07:48;;;;;;;;;13.00;13.00;;;;;23.80;100.00;97969.88;6041074;28;98766;-61
2023/07/01 04:10:52;;;;;;;;;13.00;13.00;;;;;23.70;100.00;97962.78;6041988;28;96708;-61
2023/07/01 04:13:55;;;;;;;;;12.40;12.00;;;;;23.77;100.00;97983.50;6043513;28;96328;-61
2023/07/01 04:17:00;;;;;;;;;13.20;12.20;;;;;23.74;100.00;97977.53;6026386;28;97021;-61
2023/07/01 04:20:06;;;;;;;;;11.20;11.20;;;;;23.69;100.00;97971.38;6043544;28;96965;-61
2023/07/01 04:23:09;;;;;;;;;14.00;13.20;;;;;23.67;100.00;97968.16;6042837;28;96682;-61
2023/07/01 04:26:12;;;;;;;;;13.80;13.60;;;;;23.64;100.00;97968.81;6026262;28;96377;-61
2023/07/01 04:29:15;;;;;;;;;13.00;13.00;;;;;23.66;100.00;97974.78;6043104;28;96705;-61
2023/07/01 04:32:21;;;;;;;;;13.50;13.00;;;;;23.67;100.00;97974.47;6041171;28;96381;-61
2023/07/01 04:35:24;;;;;;;;;14.00;13.60;;;;;23.67;100.00;97976.41;6043268;28;97008;-61
2023/07/01 04:38:27;;;;;;;;;13.60;13.60;;;;;23.45;100.00;97940.88;6042890;28;96376;-61
2023/07/01 04:41:32;;;;;;;;;11.00;11.00;;;;;23.60;100.00;97978.88;6043171;28;96820;-61
2023/07/01 04:44:36;;;;;;;;;15.00;13.50;;;;;23.59;100.00;97983.56;6042320;28;96320;-61
2023/07/01 04:47:40;;;;;;;;;13.00;13.00;;;;;23.58;100.00;97984.69;6042749;28;96621;-61
2023/07/01 04:50:44;;;;;;;;;14.40;14.40;;;;;23.51;100.00;97978.88;6042802;28;96422;-61
2023/07/01 04:53:48;;;;;;;;;15.20;14.80;;;;;23.48;100.00;97990.53;6042398;28;96529;-61
2023/07/01 04:56:51;;;;;;;;;14.00;13.00;;;;;23.40;100.00;97996.84;6041796;28;96372;-61
2023/07/01 04:59:54;;;;;;;;;14.00;13.60;;;;;23.42;100.00;97991.00;6043001;28;96485;-61
2023/07/01 05:02:59;;;;;;;;;14.00;14.00;;;;;23.43;100.00;98001.69;6041392;28;96387;-61
2023/07/01 05:06:03;;;;;;;;;12.60;12.60;;;;;23.44;100.00;97994.25;6042573;28;96902;-61
2023/07/01 05:09:06;;;;;;;;;12.50;12.00;;;;;23.42;100.00;97993.75;6025805;28;96490;-61
2023/07/01 05:12:10;;;;;;;;;11.50;11.00;;;;;23.43;100.00;97987.94;6040703;28;98556;-61
2023/07/01 05:15:13;;;;;;;;;13.00;12.80;;;;;23.44;100.00;97997.81;6042712;28;96705;-61
2023/07/01 05:18:18;;;;;;;;;14.00;13.00;;;;;23.44;100.00;98005.25;6024407;28;97330;-61
2023/07/01 05:21:21;;;;;;;;;14.20;12.80;;;;;23.44;100.00;98014.31;6042148;28;96351;-61
2023/07/01 05:24:25;;;;;;;;;11.00;11.00;;;;;23.32;100.00;97997.66;6032123;28;96407;-61
2023/07/01 05:27:28;;;;;;;;;12.60;12.00;;;;;23.50;100.00;98020.50;6018614;28;97516;-61
2023/07/01 05:30:31;;;;;;;;;14.50;14.00;;;;;23.49;100.00;98021.63;6019033;28;96405;-61
2023/07/01 05:33:36;;;;;;;;;12.80;12.20;;;;;23.49;100.00;98025.19;6018771;29;96552;-61
2023/07/01 05:36:39;;;;;;;;;13.00;12.40;;;;;23.50;100.00;98021.31;6017710;29;96344;-61
2023/07/01 05:39:43;;;;;;;;;14.50;14.25;;;;;23.51;100.00;98024.84;6018905;28;97591;-61
2023/07/01 05:42:47;;;;;;;;;11.80;11.80;;;;;23.49;100.00;98027.94;6017609;28;96944;-61
2023/07/01 05:45:50;;;;;;;;;18.00;16.00;;;;;23.47;100.00;98035.69;6032793;28;99203;-61
2023/07/01 05:48:55;;;;;;;;;12.33;12.00;;;;;23.44;100.00;98021.75;6018881;29;96585;-61
2023/07/01 05:51:58;;;;;;;;;13.60;13.00;;;;;23.41;100.00;98025.94;6016855;29;96730;-61
2023/07/01 05:55:02;;;;;;;;;13.00;12.33;;;;;23.39;100.00;98022.75;6031690;28;96435;-61
2023/07/01 05:58:05;;;;;;;;;11.80;10.80;;;;;23.41;100.00;98019.66;6018566;29;96771;-61
2023/07/01 06:01:09;;;;;;;;;12.20;11.60;;;;;23.43;100.00;98020.13;6020736;29;96326;-60
2023/07/01 06:04:14;;;;;;;;;12.50;12.00;;;;;23.43;100.00;98018.19;6021054;28;96453;-61
2023/07/01 06:07:17;;;;;;;;;11.00;11.00;;;;;23.48;100.00;98020.00;6019156;29;96528;-61
2023/07/01 06:10:21;;;;;;;;;12.50;12.00;;;;;23.50;100.00;98015.00;6018527;29;98593;-61
2023/07/01 06:13:24;;;;;;;;;11.60;11.60;;;;;23.54;100.00;98016.75;6022086;28;96914;-61
2023/07/01 06:16:27;;;;;;;;;12.00;11.75;;;;;23.60;100.00;98020.16;6019906;29;96684;-61
2023/07/01 06:19:32;;;;;;;;;12.00;11.00;;;;;23.71;100.00;98032.41;6021328;29;96363;-61
2023/07/01 06:22:35;;;;;;;;;12.33;12.00;;;;;23.74;100.00;98034.50;6019204;28;97228;-61
2023/07/01 06:25:39;;;;;;;;;13.00;13.00;;;;;23.74;100.00;98043.59;6041920;28;96636;-61
2023/07/01 06:28:43;;;;;;;;;11.50;11.00;;;;;23.75;100.00;98042.41;6041282;28;96809;-61
2023/07/01 06:31:46;;;;;;;;;11.00;11.00;;;;;23.73;100.00;98047.47;6043022;28;97124;-61
2023/07/01 06:34:51;;;;;;;;;10.00;10.00;;;;;23.70;100.00;98047.31;6026078;28;98587;-61
2023/07/01 06:37:54;;;;;;;;;8.33;8.33;;;;;23.69;100.00;98049.25;6044284;28;96691;-61
2023/07/01 06:40:58;;;;;;;;;12.40;11.80;;;;;23.67;100.00;98043.25;6042907;28;96980;-61
2023/07/01 06:44:01;;;;;;;;;13.00;12.00;;;;;23.58;100.00;98036.16;6044071;28;96487;-61
2023/07/01 06:47:06;;;;;;;;;9.00;9.00;;;;;23.55;100.00;98029.38;6043110;28;96565;-61
2023/07/01 06:50:11;;;;;;;;;11.50;11.50;;;;;23.50;100.00;98031.50;6045051;28;96367;-61
2023/07/01 06:53:14;;;;;;;;;16.00;15.00;;;;;23.48;100.00;98042.00;6026986;28;98419;-61
2023/07/01 06:56:18;;;;;;;;;11.50;11.00;;;;;23.44;100.00;98044.56;6043880;28;96544;-61
2023/07/01 06:59:22;;;;;;;;;15.00;13.00;;;;;23.42;100.00;98035.00;6043760;28;96366;-61
2023/07/01 07:02:25;;;;;;;;;12.60;12.00;;;;;23.38;100.00;98025.81;6027458;28;98541;-61
2023/07/01 07:05:32;;;;;;;;;10.00;10.00;;;;;23.46;100.00;98042.31;6044905;28;96415;-61
2023/07/01 07:08:36;;;;;;;;;11.00;10.25;;;;;23.52;100.00;98045.72;6044304;28;96424;-61
2023/07/01 07:11:40;;;;;;;;;13.00;11.00;;;;;23.62;100.00;98048.94;6042773;28;96415;-61
2023/07/01 07:14:44;;;;;;;;;11.80;11.80;;;;;23.67;100.00;98034.19;6025897;28;99544;-61
2023/07/01 07:17:47;;;;;;;;;14.40;13.40;;;;;23.73;100.00;98038.38;6044430;28;96340;-61
2023/07/01 07:20:52;;;;;;;;;14.00;13.67;;;;;23.78;100.00;98042.91;6044400;28;96495;-61
2023/07/01 07:23:55;;;;;;;;;12.75;12.50;;;;;23.71;100.00;98037.91;6041025;28;97875;-61
2023/07/01 07:27:00;;;;;;;;;12.50;11.00;;;;;23.69;100.00;98042.94;6043844;28;96478;-61
2023/07/01 07:30:04;;;;;;;;;11.00;11.00;;;;;23.54;100.00;98024.19;6043739;28;96961;-61
2023/07/01 07:33:08;;;;;;;;;13.00;12.00;;;;;23.63;100.00;98031.28;6027224;28;96737;-61
2023/07/01 07:36:13;;;;;;;;;12.25;11.75;;;;;23.66;100.00;98038.06;6043034;28;96492;-61
2023/07/01 07:39:16;;;;;;;;;13.00;12.00;;;;;23.66;100.00;98038.88;6043610;28;96836;-61
2023/07/01 07:42:19;;;;;;;;;13.00;13.00;;;;;23.63;100.00;98027.72;6043550;28;96619;-61
2023/07/01 07:45:23;;;;;;;;;12.80;11.00;;;;;23.53;100.00;98028.88;6026779;28;99283;-61
2023/07/01 07:48:26;;;;;;;;;16.00;14.00;;;;;23.48;100.00;98029.06;6042866;28;96348;-61
2023/07/01 07:51:30;;;;;;;;;14.60;13.60;;;;;23.51;100.00;98033.09;6043947;28;96967;-61
2023/07/01 07:54:34;;;;;;;;;14.25;13.00;;;;;23.50;100.00;98028.75;6042778;28;96453;-61
2023/07/01 07:57:37;;;;;;;;;15.00;14.00;;;;;23.51;100.00;98025.66;6043639;28;96319;-61
2023/07/01 08:00:40;;;;;;;;;14.00;14.00;;;;;23.47;100.00;98032.94;6042460;28;96486;-61
2023/07/01 08:03:44;;;;;;;;;13.00;13.00;;;;;23.43;100.00;98031.13;6041195;28;96334;-61
2023/07/01 08:06:49;;;;;;;;;13.00;12.00;;;;;23.45;100.00;98031.66;6042941;28;96656;-61
2023/07/01 08:09:52;;;;;;;;;17.00;15.00;;;;;23.47;100.00;98032.94;6042312;28;96610;-61
2023/07/01 08:12:55;;;;;;;;;15.00;15.00;;;;;23.50;100.00;98037.81;6026191;28;97762;-61
2023/07/01 08:15:59;;;;;;;;;15.50;14.50;;;;;23.53;100.00;98039.09;6036494;28;96552;-61
2023/07/01 08:19:02;;;;;;;;;16.00;15.60;;;;;23.63;100.00;98038.75;6038193;28;96680;-61
2023/07/01 08:22:07;;;;;;;;;14.67;13.67;;;;;23.71;100.00;98033.22;6024161;28;96909;-61
2023/07/01 08:25:10;;;;;;;;;15.00;13.75;;;;;23.71;100.00;98037.91;6041478;28;96536;-61
2023/07/01 08:28:13;;;;;;;;;12.50;12.50;;;;;23.77;100.00;98028.34;6043125;28;97559;-61
2023/07/01 08:31:16;;;;;;;;;18.50;17.50;;;;;23.88;100.00;98028.78;6026643;28;96580;-61
2023/07/01 08:34:20;;;;;;;;;17.40;17.00;;;;;23.85;100.00;98023.97;6044851;28;96414;-61
2023/07/01 08:37:24;;;;;;;;;19.00;17.00;;;;;23.73;100.00;98022.69;6035973;28;98477;-61
2023/07/01 08:40:27;;;;;;;;;14.50;14.00;;;;;23.77;100.00;98033.03;6042955;28;96625;-61
2023/07/01 08:43:33;;;;;;;;;16.00;15.00;;;;;23.72;100.00;98028.50;6043237;28;96373;-61
2023/07/01 08:46:39;;;;;;;;;14.00;13.60;;;;;23.62;100.00;98026.13;6043042;28;96334;-61
2023/07/01 08:49:48;;;;;;;;;15.20;14.80;;;;;23.59;100.00;98022.09;6025314;28;96053;-61
2023/07/01 08:52:58;;;;;;;;;15.00;14.00;;;;;23.52;100.00;98024.50;6025505;28;99064;-61
2023/07/01 08:56:01;;;;;;;;;12.50;12.25;;;;;23.49;100.00;98019.69;6039824;28;97098;-60
2023/07/01 08:59:05;;;;;;;;;13.50;13.00;;;;;23.49;100.00;98013.38;6032026;28;96412;-61
2023/07/01 09:02:09;;;;;;;;;14.00;14.00;;;;;23.50;100.00;98015.00;6033365;28;96152;-61
2023/07/01 09:05:12;;;;;;;;;17.00;14.00;;;;;23.50;100.00;98013.03;6025763;28;96367;-61
2023/07/01 09:08:17;;;;;;;;;11.00;10.60;;;;;23.57;100.00;98007.84;6042698;28;96945;-61
2023/07/01 09:11:20;;;;;;;;;16.80;13.80;;;;;23.58;100.00;98009.47;6024952;28;96906;-61
2023/07/01 09:14:23;;;;;;;;;12.50;12.50;;;;;23.47;100.00;98002.69;6025623;28;96445;-61
2023/07/01 09:17:28;;;;;;;;;13.00;13.00;;;;;23.52;100.00;98009.94;6042802;28;96815;-61
2023/07/01 09:20:33;;;;;;;;;11.00;10.20;;;;;23.60;100.00;98009.91;6042389;28;97202;-61
2023/07/01 09:23:39;;;;;;;;;12.40;12.40;;;;;23.67;100.00;98007.50;6042196;28;96477;-61
2023/07/01 09:26:42;;;;;;;;;12.00;12.00;;;;;23.78;100.00;98012.63;6040639;28;96343;-61
2023/07/01 09:29:45;;;;;;;;;15.00;15.00;;;;;23.86;100.00;97998.03;6042759;28;96363;-61
2023/07/01 09:32:49;;;;;;;;;15.00;13.60;;;;;23.96;100.00;98003.97;6044723;28;96672;-61
2023/07/01 09:35:57;;;;;;;;;13.00;11.00;;;;;24.07;100.00;97996.97;6046350;28;96850;-61
2023/07/01 09:39:04;;;;;;;;;10.00;10.00;;;;;24.07;100.00;98004.44;6046644;28;96441;-61
2023/07/01 09:42:08;;;;;;;;;16.40;15.00;;;;;24.26;100.00;98004.03;6045517;28;97612;-61
2023/07/01 09:45:12;;;;;;;;;15.00;14.00;;;;;24.39;100.00;98005.72;6046471;28;96357;-61
2023/07/01 09:48:18;;;;;;;;;15.40;13.40;;;;;24.59;100.00;98005.78;6047597;28;96439;-61
2023/07/01 09:51:23;;;;;;;;;13.00;12.00;;;;;24.79;100.00;98001.41;6042274;28;96807;-61
2023/07/01 09:54:29;;;;;;;;;13.60;13.00;;;;;24.89;100.00;97997.47;6053374;28;97863;-61
2023/07/01 09:57:32;;;;;;;;;12.00;12.00;;;;;25.02;100.00;97993.66;6029290;28;96352;-61
2023/07/01 10:00:35;;;;;;;;;15.80;15.00;;;;;25.18;100.00;97994.63;6044620;28;96310;-61
2023/07/01 10:03:39;;;;;;;;;21.00;19.25;;;;;25.38;100.00;97979.19;6042704;28;97440;-61
2023/07/01 10:06:44;;;;;;;;;19.40;18.40;;;;;25.62;100.00;97981.22;6044022;28;97026;-61
2023/07/01 10:09:51;;;;;;;;;14.00;13.40;;;;;26.01;100.00;97968.75;6028379;28;97192;-61
2023/07/01 10:12:55;;;;;;;;;12.40;11.80;;;;;26.22;100.00;97975.81;6044534;28;96326;-61
2023/07/01 10:16:02;;;;;;;;;15.00;14.50;;;;;26.42;100.00;97954.72;6043910;28;97633;-61
2023/07/01 10:19:26;;;;;;;;;11.75;11.75;;;;;26.55;100.00;97959.06;6044778;28;97622;-61
2023/07/01 10:22:31;;;;;;;;;14.00;14.00;;;;;26.57;100.00;97961.50;6040270;28;96685;-61
2023/07/01 10:25:37;;;;;;;;;12.00;12.00;;;;;26.74;100.00;97956.47;6042179;28;96558;-61
2023/07/01 10:28:41;;;;;;;;;12.00;11.50;;;;;27.06;100.00;97963.00;6043329;28;96553;-61
2023/07/01 10:32:26;;;;;;;;;13.20;13.00;;;;;27.83;100.00;97959.94;6026977;28;97427;-61
2023/07/01 10:35:30;;;;;;;;;11.40;11.40;;;;;28.35;100.00;97954.91;6020027;28;97919;-61
2023/07/01 10:38:34;;;;;;;;;11.00;11.00;;;;;28.82;100.00;97954.81;6040986;28;99532;-61
2023/07/01 10:41:53;;;;;;;;;11.75;11.75;;;;;29.28;100.00;97933.53;6040788;28;96693;-61
2023/07/01 10:45:33;;;;;;;;;20.00;19.80;;;;;29.97;100.00;97951.09;6042571;28;96495;-61
2023/07/01 10:48:38;;;;;;;;;11.40;11.40;;;;;29.95;100.00;97942.34;6044086;28;97623;-61
2023/07/01 10:52:06;;;;;;;;;12.00;12.00;;;;;30.23;100.00;97944.75;6022463;28;99324;-61
2023/07/01 10:55:34;;;;;;;;;12.40;11.80;;;;;30.38;100.00;97945.78;6040617;28;97150;-62
2023/07/01 10:58:39;;;;;;;;;14.00;12.80;;;;;30.20;100.00;97942.75;6042258;28;96562;-61
2023/07/01 11:01:44;;;;;;;;;11.40;10.00;;;;;29.95;100.00;97933.19;6055126;28;97997;-61
2023/07/01 11:05:08;;;;;;;;;11.00;11.00;;;;;29.62;100.00;97928.22;6040646;28;99621;-61
2023/07/01 11:08:13;;;;;;;;;10.75;10.25;;;;;29.48;100.00;97936.28;6043427;28;97083;-61
2023/07/01 11:11:21;;;;;;;;;12.60;12.00;;;;;29.48;100.00;97937.09;6044029;28;96336;-61
2023/07/01 11:14:32;;;;;;;;;10.00;10.00;;;;;29.71;100.00;97924.03;6042823;28;96383;-61
2023/07/01 11:17:35;;;;;;;;;11.60;11.00;;;;;30.00;100.00;97932.88;6041939;28;98531;-61
2023/07/01 11:20:48;;;;;;;;;15.00;14.40;;;;;30.41;100.00;97929.13;6041955;28;97693;-62
2023/07/01 11:23:54;;;;;;;;;12.80;12.00;;;;;30.62;100.00;97919.53;6043132;28;96659;-62
2023/07/01 11:27:01;;;;;;;;;12.00;11.00;;;;;30.67;100.00;97917.22;6041626;28;96466;-62
2023/07/01 11:30:08;;;;;;;;;11.00;10.25;;;;;30.66;100.00;97917.59;6011784;28;97059;-61
2023/07/01 11:33:12;;;;;;;;;12.80;12.80;;;;;30.93;100.00;97916.38;6026696;28;96672;-61
2023/07/01 11:36:17;;;;;;;;;14.00;13.40;;;;;31.40;100.00;97908.16;6038769;28;97480;-61
2023/07/01 11:39:20;;;;;;;;;14.00;13.00;;;;;31.68;100.00;97918.00;6038804;28;98111;-62
2023/07/01 11:42:26;;;;;;;;;15.20;13.60;;;;;31.82;100.00;97902.22;6020961;28;97894;-61
2023/07/01 11:45:45;;;;;;;;;14.00;14.00;;;;;31.91;100.00;97904.69;6025930;28;97317;-61
2023/07/01 11:48:48;;;;;;;;;12.40;12.40;;;;;32.25;100.00;97906.13;6040651;28;97633;-61
2023/07/01 11:51:56;;;;;;;;;15.50;14.00;;;;;32.51;97.21;97887.56;6038500;28;96523;-61
2023/07/01 11:55:00;;;;;;;;;12.00;12.00;;;;;32.88;90.55;97904.94;6043243;28;96738;-61
2023/07/01 11:58:25;;;;;;;;;14.00;13.40;;;;;33.07;91.05;97901.81;6032142;28;96495;-61
2023/07/01 12:01:30;;;;;;;;;15.00;14.50;;;;;33.06;86.86;97907.78;6039810;28;96328;-61
2023/07/01 12:04:35;;;;;;;;;13.00;12.50;;;;;32.89;92.51;97908.53;6030205;28;97050;-61
2023/07/01 12:07:54;;;;;;;;;12.40;11.60;;;;;32.86;91.82;97909.28;6041437;28;96532;-61
2023/07/01 12:10:58;;;;;;;;;12.40;11.60;;;;;33.12;91.21;97906.22;6040825;28;96396;-61
2023/07/01 12:14:17;;;;;;;;;11.80;11.20;;;;;33.19;84.41;97900.66;6040974;28;96639;-61
2023/07/01 12:17:28;;;;;;;;;12.00;12.00;;;;;33.03;89.44;97903.00;6045681;28;96414;-61
2023/07/01 12:20:32;;;;;;;;;13.80;12.80;;;;;33.06;92.45;97886.25;6038391;28;96698;-60
2023/07/01 12:23:42;;;;;;;;;11.00;10.75;;;;;33.38;92.65;97889.13;6040103;28;96108;-61
2023/07/01 12:26:46;;;;;;;;;12.40;12.00;;;;;33.69;89.10;97890.41;6050527;28;97658;-61
2023/07/01 12:29:50;;;;;;;;;14.60;14.00;;;;;33.88;83.17;97890.00;6043629;28;97972;-61
2023/07/01 12:32:55;;;;;;;;;12.20;12.00;;;;;34.12;87.43;97885.59;6037373;28;96152;-61
2023/07/01 12:35:58;;;;;;;;;13.80;13.40;;;;;34.41;86.02;97874.38;6041689;28;97418;-61
2023/07/01 12:39:02;;;;;;;;;12.33;12.00;;;;;34.48;77.28;97877.16;6041201;28;96444;-61
2023/07/01 12:42:07;;;;;;;;;14.00;13.60;;;;;34.36;77.87;97868.00;6053968;28;97057;-60
2023/07/01 12:45:11;;;;;;;;;12.75;11.75;;;;;34.41;80.58;97872.38;6040687;28;96336;-60
2023/07/01 12:48:16;;;;;;;;;14.00;13.40;;;;;34.38;75.11;97878.78;6041420;28;96860;-61
2023/07/01 12:51:19;;;;;;;;;13.00;12.00;;;;;34.38;74.59;97858.41;6041357;28;96366;-61
2023/07/01 12:54:23;;;;;;;;;15.40;15.00;;;;;34.42;72.97;97867.59;6022509;28;96972;-61
2023/07/01 12:57:29;;;;;;;;;13.80;12.80;;;;;33.89;68.75;97857.25;6039725;28;96985;-61
2023/07/01 13:00:32;;;;;;;;;14.00;14.00;;;;;33.30;71.37;97856.81;6039849;28;97540;-61
2023/07/01 13:03:37;;;;;;;;;15.00;14.00;;;;;33.03;71.78;97852.72;6040553;28;98654;-60
2023/07/01 13:06:40;;;;;;;;;12.80;12.20;;;;;33.00;74.30;97850.72;6041717;28;96459;-61
2023/07/01 13:09:49;;;;;;;;;15.60;14.60;;;;;33.07;82.09;97850.75;6040944;28;96809;-61
2023/07/01 13:12:59;;;;;;;;;14.00;13.40;;;;;33.11;78.27;97843.16;6042723;28;99308;-60
2023/07/01 13:16:02;;;;;;;;;13.00;13.00;;;;;33.35;80.18;97839.66;6043367;28;98071;-60
2023/07/01 13:19:08;;;;;;;;;13.00;13.00;;;;;33.33;75.08;97841.25;6045303;28;97034;-61
2023/07/01 13:22:14;;;;;;;;;15.00;15.00;;;;;33.16;73.44;97839.22;6036249;28;97121;-61
2023/07/01 13:25:18;;;;;;;;;15.80;15.00;;;;;32.90;77.72;97834.72;6040354;28;97680;-60
2023/07/01 13:28:21;;;;;;;;;18.00;16.50;;;;;32.90;75.50;97837.53;6040945;28;96724;-61
2023/07/01 13:31:25;;;;;;;;;16.50;15.50;;;;;33.09;76.60;97834.38;6043199;28;96801;-61
2023/07/01 13:34:38;;;;;;;;;14.00;14.00;;;;;33.41;78.87;97831.69;6044086;28;96921;-61
2023/07/01 13:37:41;;;;;;;;;15.50;15.25;;;;;33.79;76.96;97836.50;6028918;28;98429;-61
2023/07/01 13:40:45;;;;;;;;;14.75;13.75;;;;;33.89;75.29;97832.91;6044691;28;96974;-61
2023/07/01 13:43:48;;;;;;;;;15.40;15.40;;;;;33.84;74.21;97821.31;6050308;28;96970;-60
2023/07/01 13:46:53;;;;;;;;;16.00;15.50;;;;;33.74;74.98;97822.13;6045474;28;96886;-60
2023/07/01 13:49:58;;;;;;;;;16.00;15.00;;;;;33.61;75.39;97816.13;6045243;28;96268;-60
2023/07/01 13:53:02;;;;;;;;;15.75;14.75;;;;;33.39;76.52;97806.13;6045306;28;96356;-60
2023/07/01 13:56:06;;;;;;;;;12.00;12.00;;;;;33.12;76.81;97807.66;6045881;28;96517;-61
2023/07/01 13:59:14;;;;;;;;;16.00;15.00;;;;;32.98;79.91;97800.06;6047348;28;96739;-60
2023/07/01 14:02:18;;;;;;;;;15.00;15.00;;;;;32.79;82.98;97803.22;6050391;28;96448;-62
2023/07/01 14:05:24;;;;;;;;;16.00;15.00;;;;;32.55;81.00;97808.25;6047780;28;96363;-60